Terminal Aerodrome Forecast
Issued by NWS Pittsburgh, PA

Current Version | Previous Version | Graphics & Text | Print | Product List | Glossary On
Versions: 1 2 3 4 5 6 7 8 9 10 11 12 13 14 15 16 17 18 19 20 21 22 23 24 25 26 27 28
000
FTUS41 KPBZ 172106 AAA
TAFPIT
TAF AMD
KPIT 172106Z 1721/1824 17005KT P6SM SCT150
     FM180500 15004KT P6SM BKN100 WS020/21035KT
     FM181000 18006KT 6SM -RA OVC070 WS020/22040KT
     FM181500 20011G22KT 4SM -RA BR OVC015=

USA.gov is the U.S. government's official web portal to all federal, state and local government web resources and services.